createdAt,value
2019-04-01T00:00:04.198Z,24.3091
2019-04-01T00:01:07.730Z,24.3259
2019-04-01T00:02:10.186Z,24.3580
2019-04-01T00:03:13.198Z,24.4144
2019-04-01T00:04:16.200Z,24.3687
2019-04-01T00:05:19.206Z,24.2771
2019-04-01T00:06:22.191Z,24.3961
2019-04-01T00:07:25.184Z,24.5060
2019-04-01T00:08:28.199Z,24.3687
2019-04-01T00:09:31.196Z,24.3259
2019-04-01T00:10:34.193Z,24.4587
2019-04-01T00:11:37.198Z,24.3961
2019-04-01T00:12:40.185Z,24.3503
2019-04-01T00:13:43.187Z,24.4404
2019-04-01T00:14:46.192Z,24.3687
2019-04-01T00:15:49.201Z,24.4129
2019-04-01T00:16:52.195Z,24.4587
2019-04-01T00:17:55.204Z,24.4419
2019-04-01T00:19:03.303Z,24.4129
2019-04-01T00:20:07.217Z,24.4587
2019-04-01T00:21:10.207Z,24.3809
2019-04-01T00:22:13.187Z,24.5335
2019-04-01T00:23:16.187Z,24.4083
2019-04-01T00:24:19.195Z,24.4587
2019-04-01T00:25:22.197Z,24.4236
2019-04-01T00:26:25.187Z,24.4373
2019-04-01T00:27:28.193Z,24.4236
2019-04-01T00:28:31.234Z,24.4907
2019-04-01T00:29:34.202Z,24.4236
2019-04-01T00:30:37.194Z,24.5182
2019-04-01T00:31:40.200Z,24.4587
2019-04-01T00:32:43.196Z,24.4724
2019-04-01T00:33:46.231Z,24.4862
2019-04-01T00:34:49.197Z,24.5151
2019-04-01T00:35:52.203Z,24.4373
2019-04-01T00:36:55.204Z,24.4831
2019-04-01T00:37:58.202Z,24.5457
2019-04-01T00:39:01.245Z,24.4694
2019-04-01T00:40:04.189Z,24.3763
2019-04-01T00:41:07.192Z,24.4831
2019-04-01T00:42:10.214Z,24.4999
2019-04-01T00:43:13.199Z,24.4831
2019-04-01T00:44:16.199Z,24.4190
2019-04-01T00:45:19.198Z,24.4678
2019-04-01T00:46:22.211Z,24.4831
2019-04-01T00:47:25.207Z,24.5563
2019-04-01T00:48:28.190Z,24.4678
2019-04-01T00:49:31.190Z,24.5914
2019-04-01T00:50:34.209Z,24.5411
2019-04-01T00:51:37.205Z,24.5090
2019-04-01T00:52:40.208Z,24.5548
2019-04-01T00:53:43.207Z,24.5869
2019-04-01T00:54:46.209Z,24.5090
2019-04-01T00:55:49.217Z,24.5518
2019-04-01T00:56:52.206Z,24.4770
2019-04-01T00:57:55.194Z,24.2451
2019-04-01T00:58:58.205Z,24.4144
2019-04-01T01:00:01.248Z,24.4465
2019-04-01T01:01:04.205Z,24.4633
2019-04-01T01:02:07.204Z,24.5090
2019-04-01T01:03:10.197Z,24.4465
2019-04-01T01:04:13.214Z,24.4602
2019-04-01T01:05:16.210Z,24.3824
2019-04-01T01:06:19.209Z,24.5548
2019-04-01T01:07:22.202Z,24.5548
2019-04-01T01:08:25.212Z,24.4907
2019-04-01T01:09:28.210Z,24.3503
2019-04-01T01:10:31.202Z,24.4144
2019-04-01T01:11:34.207Z,24.2588
2019-04-01T01:12:37.188Z,24.4266
2019-04-01T01:13:40.207Z,24.3687
2019-04-01T01:14:43.193Z,24.2863
2019-04-01T01:15:46.195Z,24.2847
2019-04-01T01:16:49.209Z,24.3488
2019-04-01T01:17:52.199Z,24.4282
2019-04-01T01:18:55.207Z,24.3488
2019-04-01T01:19:58.196Z,24.4129
2019-04-01T01:21:01.206Z,24.3458
2019-04-01T01:22:04.204Z,24.4694
2019-04-01T01:23:07.213Z,24.4694
2019-04-01T01:24:10.196Z,24.3763
2019-04-01T01:25:13.211Z,24.5502
2019-04-01T01:26:16.196Z,24.3442
2019-04-01T01:27:19.205Z,24.6387
2019-04-01T01:28:22.206Z,24.5289
2019-04-01T01:29:25.190Z,24.4816
2019-04-01T01:30:28.195Z,24.4541
2019-04-01T01:31:31.201Z,24.6250
2019-04-01T01:32:34.204Z,24.5136
2019-04-01T01:33:37.189Z,24.4862
2019-04-01T01:34:40.210Z,24.4358
2019-04-01T01:35:43.211Z,24.4968
2019-04-01T01:36:46.219Z,24.4816
2019-04-01T01:37:49.211Z,24.4175
2019-04-01T01:38:52.272Z,24.5609
2019-04-01T01:39:55.193Z,24.4678
2019-04-01T01:40:58.210Z,24.4953
2019-04-01T01:42:01.208Z,24.5747
2019-04-01T01:43:04.219Z,24.4495
2019-04-01T01:44:07.206Z,24.5274
2019-04-01T01:45:10.195Z,24.4511
2019-04-01T01:46:13.213Z,24.4968
2019-04-01T01:47:16.196Z,24.4495
2019-04-01T01:48:19.203Z,24.5701
2019-04-01T01:49:22.193Z,24.4465
2019-04-01T01:50:25.194Z,24.5701
2019-04-01T01:51:28.205Z,24.5731
2019-04-01T01:52:31.194Z,24.4953
2019-04-01T01:53:34.200Z,24.5731
2019-04-01T01:54:37.207Z,24.5411
2019-04-01T01:55:40.193Z,24.4541
2019-04-01T01:56:43.192Z,24.6159
2019-04-01T01:57:46.203Z,24.5563
2019-04-01T01:58:49.190Z,24.5563
2019-04-01T01:59:52.191Z,24.5869
2019-04-01T02:00:55.193Z,24.5701
2019-04-01T02:01:58.229Z,24.5731
2019-04-01T02:03:01.193Z,24.5975
2019-04-01T02:04:04.198Z,24.6601
2019-04-01T02:05:07.183Z,24.5686
2019-04-01T02:06:10.197Z,24.5228
2019-04-01T02:07:13.216Z,24.6433
2019-04-01T02:08:16.195Z,24.6143
2019-04-01T02:09:19.193Z,24.7837
2019-04-01T02:10:22.205Z,24.6159
2019-04-01T02:11:25.284Z,24.6922
2019-04-01T02:12:28.224Z,24.6571
2019-04-01T02:13:31.207Z,24.6784
2019-04-01T02:14:34.197Z,24.6433
2019-04-01T02:15:44.730Z,24.6281
2019-04-01T02:16:47.207Z,24.7028
2019-04-01T02:17:50.211Z,24.7807
2019-04-01T02:18:53.187Z,24.6113
2019-04-01T02:19:56.188Z,24.7196
2019-04-01T02:20:59.200Z,24.6922
2019-04-01T02:22:02.185Z,24.7028
2019-04-01T02:23:05.197Z,24.7623
2019-04-01T02:24:08.201Z,24.6891
2019-04-01T02:25:11.205Z,24.7471
2019-04-01T02:26:14.186Z,24.7166
2019-04-01T02:27:17.196Z,24.7333
2019-04-01T02:28:20.202Z,24.8112
2019-04-01T02:29:23.209Z,24.7333
2019-04-01T02:30:26.192Z,24.7623
2019-04-01T02:31:29.207Z,24.7974
2019-04-01T02:32:32.190Z,24.7623
2019-04-01T02:33:35.205Z,24.7623
2019-04-01T02:34:38.195Z,24.7349
2019-04-01T02:35:41.205Z,24.7974
2019-04-01T02:36:44.194Z,24.8402
2019-04-01T02:37:47.180Z,24.8112
2019-04-01T02:38:50.206Z,24.7761
2019-04-01T02:39:53.193Z,24.8218
2019-04-01T02:40:56.195Z,24.8218
2019-04-01T02:41:59.204Z,24.8676
2019-04-01T02:43:02.210Z,24.9317
2019-04-01T02:44:05.214Z,24.7929
2019-04-01T02:45:08.209Z,24.8539
2019-04-01T02:46:11.212Z,24.8386
2019-04-01T02:47:14.197Z,24.8814
2019-04-01T02:48:17.207Z,24.9302
2019-04-01T02:49:20.209Z,24.9439
2019-04-01T02:50:23.186Z,24.9302
2019-04-01T02:51:26.211Z,24.9134
2019-04-01T02:52:29.208Z,24.9134
2019-04-01T02:53:32.202Z,24.9439
2019-04-01T02:54:35.214Z,24.8356
2019-04-01T02:55:38.211Z,24.9439
2019-04-01T02:56:41.189Z,24.9119
2019-04-01T02:57:44.211Z,24.9577
2019-04-01T02:58:47.196Z,24.9439
2019-04-01T02:59:50.197Z,24.9729
2019-04-01T03:00:53.215Z,24.9271
2019-04-01T03:01:56.192Z,24.9760
2019-04-01T03:02:59.205Z,24.9439
2019-04-01T03:04:02.227Z,24.9897
2019-04-01T03:05:05.207Z,24.9775
2019-04-01T03:06:08.203Z,24.9439
2019-04-01T03:07:11.211Z,24.9577
2019-04-01T03:08:14.213Z,24.9729
2019-04-01T03:09:17.197Z,25.0217
2019-04-01T03:10:20.213Z,25.0965
2019-04-01T03:11:23.201Z,24.9577
2019-04-01T03:12:26.191Z,25.0324
2019-04-01T03:13:29.204Z,24.9866
2019-04-01T03:14:32.218Z,25.0141
2019-04-01T03:15:35.208Z,25.0324
2019-04-01T03:16:38.193Z,25.0782
2019-04-01T03:17:41.221Z,25.0950
2019-04-01T03:18:44.204Z,25.0492
2019-04-01T03:19:47.211Z,25.0645
2019-04-01T03:20:50.205Z,25.1545
2019-04-01T03:21:53.207Z,25.1087
2019-04-01T03:22:56.197Z,25.2186
2019-04-01T03:23:59.227Z,25.1545
2019-04-01T03:25:02.192Z,25.2293
2019-04-01T03:26:05.224Z,25.2461
2019-04-01T03:27:08.217Z,25.2293
2019-04-01T03:28:11.209Z,25.2781
2019-04-01T03:29:14.207Z,25.1820
2019-04-01T03:30:17.386Z,25.3071
2019-04-01T03:31:20.205Z,25.2293
2019-04-01T03:32:23.211Z,25.2750
2019-04-01T03:33:26.239Z,25.3056
2019-04-01T03:34:29.193Z,25.2750
2019-04-01T03:35:32.223Z,25.3513
2019-04-01T03:36:35.239Z,25.3666
2019-04-01T03:37:38.212Z,25.3025
2019-04-01T03:38:41.197Z,25.3239
2019-04-01T03:39:44.210Z,25.3376
2019-04-01T03:40:47.194Z,25.3376
2019-04-01T03:41:50.199Z,25.3513
2019-04-01T03:42:53.213Z,25.3834
2019-04-01T03:43:56.193Z,25.4429
2019-04-01T03:44:59.221Z,25.4582
2019-04-01T03:46:02.224Z,25.4124
2019-04-01T03:47:05.216Z,25.5024
2019-04-01T03:48:08.196Z,25.4536
2019-04-01T03:49:11.202Z,25.4429
2019-04-01T03:50:14.191Z,25.6260
2019-04-01T03:51:17.192Z,25.5024
2019-04-01T03:52:20.192Z,25.5207
2019-04-01T03:53:23.200Z,25.5024
2019-04-01T03:54:26.199Z,25.5039
2019-04-01T03:55:29.352Z,25.5940
2019-04-01T03:56:32.200Z,25.5177
2019-04-01T03:57:35.211Z,25.5177
2019-04-01T03:58:38.201Z,25.6260
2019-04-01T03:59:41.206Z,25.6275
2019-04-01T04:00:44.219Z,25.5665
2019-04-01T04:01:47.199Z,25.5802
2019-04-01T04:02:50.211Z,25.7496
2019-04-01T04:03:53.205Z,25.6901
2019-04-01T04:04:56.206Z,25.6764
2019-04-01T04:05:59.220Z,25.7176
2019-04-01T04:07:02.221Z,25.7191
2019-04-01T04:08:05.208Z,25.7633
2019-04-01T04:09:08.203Z,25.7038
2019-04-01T04:10:11.211Z,25.6992
2019-04-01T04:11:14.207Z,25.7496
2019-04-01T04:12:17.202Z,25.8564
2019-04-01T04:13:20.195Z,25.6870
2019-04-01T04:14:23.211Z,25.7954
2019-04-01T04:15:26.199Z,25.7954
2019-04-01T04:16:29.192Z,25.8274
2019-04-01T04:17:32.196Z,25.8427
2019-04-01T04:18:35.204Z,25.9373
2019-04-01T04:19:38.212Z,25.9510
2019-04-01T04:20:41.208Z,25.8244
2019-04-01T04:21:44.211Z,25.8381
2019-04-01T04:22:47.192Z,25.8839
2019-04-01T04:23:50.202Z,26.0075
2019-04-01T04:24:53.208Z,25.9663
2019-04-01T04:25:56.214Z,25.9327
2019-04-01T04:26:59.212Z,25.9236
2019-04-01T04:28:02.204Z,25.9236
2019-04-01T04:29:05.229Z,25.9342
2019-04-01T04:30:08.190Z,26.0761
2019-04-01T04:31:11.194Z,25.9205
2019-04-01T04:32:14.211Z,25.9831
2019-04-01T04:33:17.206Z,26.0258
2019-04-01T04:34:20.218Z,25.9480
2019-04-01T04:35:23.204Z,26.0441
2019-04-01T04:36:26.214Z,26.0151
2019-04-01T04:37:29.210Z,26.0563
2019-04-01T04:38:32.202Z,26.0212
2019-04-01T04:39:35.208Z,26.1311
2019-04-01T04:40:40.849Z,26.0884
2019-04-01T04:41:44.205Z,26.1021
2019-04-01T04:42:47.191Z,26.0563
2019-04-01T04:43:50.209Z,26.1494
2019-04-01T04:44:53.193Z,26.2394
2019-04-01T04:45:56.205Z,26.2531
2019-04-01T04:46:59.208Z,26.2684
2019-04-01T04:48:02.217Z,26.2257
2019-04-01T04:49:05.208Z,26.2531
2019-04-01T04:50:08.200Z,26.2409
2019-04-01T04:51:11.213Z,26.2760
2019-04-01T04:52:14.198Z,26.2913
2019-04-01T04:53:17.197Z,26.3035
2019-04-01T04:54:20.204Z,26.3188
2019-04-01T04:55:23.211Z,26.2898
2019-04-01T04:56:26.194Z,26.2592
2019-04-01T04:57:29.191Z,26.2257
2019-04-01T04:58:32.197Z,26.3951
2019-04-01T04:59:35.201Z,26.3920
2019-04-01T05:00:38.222Z,26.4271
2019-04-01T05:01:41.199Z,26.3676
2019-04-01T05:02:44.212Z,26.3828
2019-04-01T05:03:47.206Z,26.2943
2019-04-01T05:04:50.221Z,26.3218
2019-04-01T05:05:53.207Z,26.3828
2019-04-01T05:06:56.189Z,26.4500
2019-04-01T05:07:59.201Z,26.4775
2019-04-01T05:09:02.205Z,26.4469
2019-04-01T05:10:05.269Z,26.3401
2019-04-01T05:11:08.194Z,26.3859
2019-04-01T05:12:11.210Z,26.2943
2019-04-01T05:13:14.187Z,26.3127
2019-04-01T05:14:17.222Z,26.3722
2019-04-01T05:15:20.204Z,26.3691
2019-04-01T05:16:23.205Z,26.3554
2019-04-01T05:17:26.189Z,26.3691
2019-04-01T05:18:29.204Z,26.4637
2019-04-01T05:19:32.235Z,26.4042
2019-04-01T05:20:35.195Z,26.3447
2019-04-01T05:21:38.201Z,26.2959
2019-04-01T05:22:41.211Z,26.2715
2019-04-01T05:23:44.203Z,26.3966
2019-04-01T05:24:47.232Z,26.3813
2019-04-01T05:25:50.193Z,26.4408
2019-04-01T05:27:01.185Z,26.3645
2019-04-01T05:28:12.865Z,26.4561
2019-04-01T05:29:24.181Z,26.5522
2019-04-01T05:30:27.185Z,26.5049
2019-04-01T05:31:30.189Z,26.4912
2019-04-01T05:32:33.194Z,26.5202
2019-04-01T05:33:36.190Z,26.4881
2019-04-01T05:34:39.193Z,26.4454
2019-04-01T05:35:42.198Z,26.5660
2019-04-01T05:36:45.202Z,26.4912
2019-04-01T05:37:48.189Z,26.4607
2019-04-01T05:38:51.187Z,26.5370
2019-04-01T05:39:54.195Z,26.5568
2019-04-01T05:40:57.196Z,26.6300
2019-04-01T05:42:00.192Z,26.6331
2019-04-01T05:43:03.199Z,26.5064
2019-04-01T05:44:06.212Z,26.5843
2019-04-01T05:45:09.193Z,26.5568
2019-04-01T05:46:12.200Z,26.5873
2019-04-01T05:47:15.207Z,26.7079
2019-04-01T05:48:18.195Z,26.7399
2019-04-01T05:49:21.201Z,26.7109
2019-04-01T05:50:24.212Z,26.7018
2019-04-01T05:51:27.192Z,26.8040
2019-04-01T05:52:30.213Z,26.8040
2019-04-01T05:53:33.195Z,26.8681
2019-04-01T05:54:36.198Z,26.8086
2019-04-01T05:55:39.206Z,26.8818
2019-04-01T05:56:42.197Z,26.8849
2019-04-01T05:57:45.201Z,26.8254
2019-04-01T05:58:48.202Z,26.7628
2019-04-01T05:59:51.211Z,26.8574
2019-04-01T06:00:54.188Z,26.7903
2019-04-01T06:01:57.225Z,26.8269
2019-04-01T06:03:00.205Z,26.8895
2019-04-01T06:04:03.190Z,26.9642
2019-04-01T06:05:06.205Z,26.8864
2019-04-01T06:06:09.201Z,26.9505
2019-04-01T06:07:12.206Z,26.9505
2019-04-01T06:08:15.213Z,27.0130
2019-04-01T06:09:18.199Z,27.0268
2019-04-01T06:10:21.210Z,26.9535
2019-04-01T06:11:24.214Z,26.9718
2019-04-01T06:12:27.217Z,27.0726
2019-04-01T06:13:30.193Z,27.1977
2019-04-01T06:14:33.203Z,27.0146
2019-04-01T06:15:36.209Z,26.9825
2019-04-01T06:16:39.204Z,27.0176
2019-04-01T06:17:42.222Z,27.0146
2019-04-01T06:18:45.207Z,27.1687
2019-04-01T06:19:48.197Z,27.2435
2019-04-01T06:20:51.207Z,27.2923
2019-04-01T06:21:54.212Z,27.2190
2019-04-01T06:22:57.192Z,27.2526
2019-04-01T06:24:00.210Z,27.2297
2019-04-01T06:25:03.213Z,27.2694
2019-04-01T06:26:06.212Z,27.3121
2019-04-01T06:27:09.188Z,27.2938
2019-04-01T06:28:12.212Z,27.3442
2019-04-01T06:29:15.188Z,27.4022
2019-04-01T06:30:18.211Z,27.3289
2019-04-01T06:31:21.258Z,27.3289
2019-04-01T06:32:24.197Z,27.4342
2019-04-01T06:33:27.193Z,27.4815
2019-04-01T06:34:30.202Z,27.3625
2019-04-01T06:35:33.225Z,27.4815
2019-04-01T06:36:38.824Z,27.4220
2019-04-01T06:37:42.219Z,27.5593
2019-04-01T06:38:45.206Z,27.4998
2019-04-01T06:39:48.192Z,27.5776
2019-04-01T06:40:51.256Z,27.6402
2019-04-01T06:41:54.185Z,27.6646
2019-04-01T06:42:57.197Z,27.6585
2019-04-01T06:44:00.201Z,27.5959
2019-04-01T06:45:03.226Z,27.7012
2019-04-01T06:46:06.211Z,27.6738
2019-04-01T06:47:09.200Z,27.7379
2019-04-01T06:48:12.207Z,27.8111
2019-04-01T06:49:15.184Z,27.7958
2019-04-01T06:50:18.189Z,27.7043
2019-04-01T06:51:21.203Z,27.7974
2019-04-01T06:52:24.205Z,27.8645
2019-04-01T06:53:27.220Z,27.7699
2019-04-01T06:54:30.210Z,27.8935
2019-04-01T06:55:33.187Z,27.8843
2019-04-01T06:56:36.199Z,27.8233
2019-04-01T06:57:39.200Z,27.9576
2019-04-01T06:58:42.219Z,28.0613
2019-04-01T06:59:45.193Z,28.0659
2019-04-01T07:00:48.207Z,28.0064
2019-04-01T07:01:51.185Z,28.0385
2019-04-01T07:02:54.190Z,28.0842
2019-04-01T07:03:57.200Z,28.1804
2019-04-01T07:05:00.399Z,28.2261
2019-04-01T07:06:03.198Z,28.2124
2019-04-01T07:07:18.315Z,28.2445
2019-04-01T07:08:15.181Z,28.1209
2019-04-01T07:09:18.202Z,28.1071
2019-04-01T07:10:24.607Z,28.2002
2019-04-01T07:11:28.218Z,28.1209
2019-04-01T07:12:31.195Z,28.3680
2019-04-01T07:13:34.189Z,28.3055
2019-04-01T07:14:37.196Z,28.3360
2019-04-01T07:15:40.187Z,28.2811
2019-04-01T07:16:43.193Z,28.4138
2019-04-01T07:17:46.201Z,28.4611
2019-04-01T07:18:49.190Z,28.4230
2019-04-01T07:19:52.229Z,28.4291
2019-04-01T07:20:55.200Z,28.5878
2019-04-01T07:21:58.209Z,28.5893
2019-04-01T07:23:01.191Z,28.5573
2019-04-01T07:24:04.272Z,28.5573
2019-04-01T07:25:07.211Z,28.6427
2019-04-01T07:26:10.188Z,28.8533
2019-04-01T07:27:13.220Z,28.8853
2019-04-01T07:28:16.199Z,28.8396
2019-04-01T07:29:19.206Z,28.7907
2019-04-01T07:30:22.252Z,28.8533
2019-04-01T07:31:25.260Z,28.9189
2019-04-01T07:32:28.191Z,28.8090
2019-04-01T07:33:31.197Z,28.8579
2019-04-01T07:34:34.195Z,28.9189
2019-04-01T07:35:37.217Z,28.9494
2019-04-01T07:36:40.201Z,28.9174
2019-04-01T07:37:43.211Z,28.9631
2019-04-01T07:38:46.202Z,29.0135
2019-04-01T07:39:49.186Z,29.0105
2019-04-01T07:40:52.203Z,29.0135
2019-04-01T07:41:55.217Z,29.0730
2019-04-01T07:42:58.304Z,28.9830
2019-04-01T07:44:01.187Z,29.0929
2019-04-01T07:45:04.203Z,29.1707
2019-04-01T07:46:08.306Z,29.1707
2019-04-01T07:47:11.205Z,29.2164
2019-04-01T07:48:14.187Z,28.9281
2019-04-01T07:49:17.221Z,28.6488
2019-04-01T07:50:20.201Z,29.2149
2019-04-01T07:51:23.199Z,29.0867
2019-04-01T07:52:26.215Z,28.8853
2019-04-01T07:53:29.199Z,29.1157
2019-04-01T07:54:32.940Z,29.0959
2019-04-01T07:55:36.205Z,29.3980
2019-04-01T07:56:39.192Z,29.5628
2019-04-01T07:57:42.203Z,29.4667
2019-04-01T07:58:45.209Z,29.6086
2019-04-01T07:59:48.189Z,29.8848
2019-04-01T08:00:51.220Z,29.7734
2019-04-01T08:01:54.203Z,29.8970
2019-04-01T08:02:57.192Z,30.0954
2019-04-01T08:04:00.197Z,29.9077
2019-04-01T08:05:03.213Z,30.0618
2019-04-01T08:06:06.211Z,30.0938
2019-04-01T08:07:09.198Z,29.9855
2019-04-01T08:08:12.198Z,30.1671
2019-04-01T08:09:15.213Z,30.2556
2019-04-01T08:10:18.198Z,30.1457
2019-04-01T08:11:21.218Z,30.2144
2019-04-01T08:12:27.648Z,30.2449
2019-04-01T08:13:31.199Z,30.3136
2019-04-01T08:14:34.213Z,30.3334
2019-04-01T08:15:37.195Z,30.3014
2019-04-01T08:16:40.213Z,30.3929
2019-04-01T08:17:43.195Z,30.4875
2019-04-01T08:18:46.200Z,30.6340
2019-04-01T08:19:49.186Z,30.5760
2019-04-01T08:20:52.191Z,30.5028
2019-04-01T08:21:55.222Z,30.5928
2019-04-01T08:22:58.210Z,30.5653
2019-04-01T08:24:01.187Z,30.4875
2019-04-01T08:25:04.192Z,30.5348
2019-04-01T08:26:07.197Z,30.6569
2019-04-01T08:27:10.225Z,30.7759
2019-04-01T08:28:13.208Z,30.8537
2019-04-01T08:29:29.571Z,30.8919
2019-04-01T08:30:25.208Z,30.8492
2019-04-01T08:31:28.193Z,30.6401
2019-04-01T08:32:31.204Z,30.6157
2019-04-01T08:33:34.185Z,30.7820
2019-04-01T08:34:37.211Z,30.3731
2019-04-01T08:35:40.207Z,30.3471
2019-04-01T08:36:43.207Z,30.2327
2019-04-01T08:37:46.218Z,30.1778
2019-04-01T08:38:49.201Z,29.9489
2019-04-01T08:39:52.205Z,29.8283
2019-04-01T08:40:55.268Z,29.6452
2019-04-01T08:41:58.188Z,29.8009
2019-04-01T08:43:01.197Z,29.7734
2019-04-01T08:44:04.185Z,29.6956
2019-04-01T08:45:07.189Z,29.6834
2019-04-01T08:46:10.188Z,29.6407
2019-04-01T08:47:13.192Z,29.6910
2019-04-01T08:48:16.228Z,29.7826
2019-04-01T08:49:19.207Z,29.4301
2019-04-01T08:50:22.200Z,29.4591
2019-04-01T08:51:25.186Z,29.6513
2019-04-01T08:52:28.192Z,29.7612
2019-04-01T08:53:31.231Z,29.7429
2019-04-01T08:54:34.190Z,29.7002
2019-04-01T08:55:37.193Z,29.6834
2019-04-01T08:56:40.207Z,29.7963
2019-04-01T08:57:43.198Z,29.8741
2019-04-01T08:58:46.214Z,29.9382
2019-04-01T08:59:49.205Z,29.7826
2019-04-01T09:00:52.201Z,29.7871
2019-04-01T09:01:55.197Z,29.8970
2019-04-01T09:02:58.204Z,29.8985
2019-04-01T09:04:01.209Z,29.8787
2019-04-01T09:05:04.185Z,29.8512
2019-04-01T09:06:07.298Z,29.9123
2019-04-01T09:07:10.211Z,29.8802
2019-04-01T09:08:13.186Z,29.9763
2019-04-01T09:09:16.203Z,29.9336
2019-04-01T09:10:19.191Z,29.9199
2019-04-01T09:11:22.192Z,29.9519
2019-04-01T09:12:25.205Z,29.9351
2019-04-01T09:13:28.203Z,29.9382
2019-04-01T09:14:31.212Z,30.0298
2019-04-01T09:15:34.200Z,30.0893
2019-04-01T09:16:37.199Z,30.1228
2019-04-01T09:17:40.739Z,30.1228
2019-04-01T09:18:43.207Z,30.1259
2019-04-01T09:19:46.193Z,30.0816
2019-04-01T09:20:49.198Z,30.0816
2019-04-01T09:21:52.208Z,30.0984
2019-04-01T09:22:55.194Z,30.0816
2019-04-01T09:23:58.207Z,30.0984
2019-04-01T09:25:01.201Z,30.1350
2019-04-01T09:26:04.217Z,30.1686
2019-04-01T09:27:07.256Z,30.0893
2019-04-01T09:28:10.192Z,30.1671
2019-04-01T09:29:13.201Z,30.2266
2019-04-01T09:30:18.704Z,30.3044
2019-04-01T09:31:22.201Z,30.2739
2019-04-01T09:32:25.218Z,30.3502
2019-04-01T09:33:28.196Z,30.1823
2019-04-01T09:34:31.223Z,30.1503
2019-04-01T09:35:34.207Z,30.2007
2019-04-01T09:36:37.214Z,30.2007
2019-04-01T09:37:40.240Z,30.1732
2019-04-01T09:38:43.205Z,30.2174
2019-04-01T09:39:46.210Z,30.2144
2019-04-01T09:40:49.198Z,30.1122
2019-04-01T09:41:52.216Z,30.2037
2019-04-01T09:42:55.197Z,30.2327
2019-04-01T09:43:58.198Z,30.2464
2019-04-01T09:45:01.284Z,30.2190
2019-04-01T09:46:04.228Z,30.2052
2019-04-01T09:47:07.228Z,30.1915
2019-04-01T09:48:10.221Z,30.1457
2019-04-01T09:49:13.212Z,30.0816
2019-04-01T09:50:16.229Z,30.1274
2019-04-01T09:51:19.197Z,30.0816
2019-04-01T09:52:22.202Z,30.0069
2019-04-01T09:53:25.212Z,30.0893
2019-04-01T09:54:28.205Z,30.1045
2019-04-01T09:55:31.198Z,30.0267
2019-04-01T09:56:34.223Z,30.0725
2019-04-01T09:57:37.201Z,30.2586
2019-04-01T09:58:40.211Z,30.3380
2019-04-01T09:59:43.190Z,30.2419
2019-04-01T10:00:46.227Z,30.4006
2019-04-01T10:01:49.221Z,30.3731
2019-04-01T10:02:52.214Z,30.4067
2019-04-01T10:03:55.206Z,30.4051
2019-04-01T10:04:58.213Z,30.3273
2019-04-01T10:06:01.208Z,30.4097
2019-04-01T10:07:04.371Z,30.4692
2019-04-01T10:08:07.211Z,30.4570
2019-04-01T10:09:10.203Z,30.5470
2019-04-01T10:10:13.243Z,30.3960
2019-04-01T10:11:16.225Z,30.5470
2019-04-01T10:12:19.210Z,30.4845
2019-04-01T10:13:22.190Z,30.5653
2019-04-01T10:14:25.213Z,30.5943
2019-04-01T10:15:28.195Z,30.5028
2019-04-01T10:16:31.197Z,30.4570
2019-04-01T10:17:34.209Z,30.4707
2019-04-01T10:18:37.197Z,30.4875
2019-04-01T10:19:40.198Z,30.5486
2019-04-01T10:20:43.208Z,30.4753
2019-04-01T10:21:46.202Z,30.3700
2019-04-01T10:22:49.184Z,30.3563
2019-04-01T10:23:52.205Z,30.4158
2019-04-01T10:24:55.209Z,30.3838
2019-04-01T10:25:58.192Z,30.3090
2019-04-01T10:27:01.213Z,30.3410
2019-04-01T10:28:04.190Z,30.2770
2019-04-01T10:29:07.208Z,30.2174
2019-04-01T10:30:10.206Z,30.2739
2019-04-01T10:31:13.194Z,30.2602
2019-04-01T10:32:16.203Z,30.2037
2019-04-01T10:33:19.205Z,30.2770
2019-04-01T10:34:22.196Z,30.2037
2019-04-01T10:35:25.205Z,30.4051
2019-04-01T10:36:28.185Z,30.2968
2019-04-01T10:37:31.183Z,30.3288
2019-04-01T10:38:34.198Z,30.3609
2019-04-01T10:39:37.194Z,30.2373
2019-04-01T10:40:40.199Z,30.2968
2019-04-01T10:41:43.215Z,30.3456
2019-04-01T10:42:46.197Z,30.3929
2019-04-01T10:43:49.201Z,30.3502
2019-04-01T10:44:52.216Z,30.3059
2019-04-01T10:45:55.206Z,30.3822
2019-04-01T10:46:58.200Z,30.2876
2019-04-01T10:48:01.262Z,30.4006
2019-04-01T10:49:04.222Z,30.2647
2019-04-01T10:50:07.227Z,30.4463
2019-04-01T10:51:10.206Z,30.4143
2019-04-01T10:52:13.289Z,30.3517
2019-04-01T10:53:16.278Z,30.4006
2019-04-01T10:54:19.273Z,30.5104
2019-04-01T10:55:22.224Z,30.5074
2019-04-01T10:56:25.247Z,30.3227
2019-04-01T10:57:28.243Z,30.2968
2019-04-01T10:58:31.241Z,30.2647
2019-04-01T10:59:34.300Z,30.2953
2019-04-01T11:00:37.252Z,30.3105
2019-04-01T11:01:40.302Z,30.3593
2019-04-01T11:02:43.234Z,30.2647
2019-04-01T11:03:46.245Z,30.3655
2019-04-01T11:04:49.240Z,30.3655
2019-04-01T11:05:52.247Z,30.5241
2019-04-01T11:06:55.206Z,30.5058
2019-04-01T11:07:58.233Z,30.6401
2019-04-01T11:09:01.235Z,30.5989
2019-04-01T11:10:04.200Z,30.6935
2019-04-01T11:11:07.202Z,30.5699
2019-04-01T11:12:10.228Z,30.5074
2019-04-01T11:13:13.221Z,30.5943
2019-04-01T11:14:16.222Z,30.7759
2019-04-01T11:15:20.027Z,30.6477
2019-04-01T11:16:23.195Z,30.6935
2019-04-01T11:17:26.209Z,30.6493
2019-04-01T11:18:29.207Z,30.7729
2019-04-01T11:19:32.217Z,30.6355
2019-04-01T11:20:35.216Z,30.7088
2019-04-01T11:21:38.203Z,30.6813
2019-04-01T11:22:41.200Z,30.6020
2019-04-01T11:23:44.189Z,30.5196
2019-04-01T11:24:47.200Z,30.6538
2019-04-01T11:25:50.203Z,30.5119
2019-04-01T11:26:53.214Z,30.5898
2019-04-01T11:27:56.219Z,30.5196
2019-04-01T11:28:59.197Z,30.5196
2019-04-01T11:30:02.210Z,30.6340
2019-04-01T11:31:05.240Z,30.7820
2019-04-01T11:32:08.197Z,30.8263
2019-04-01T11:33:11.245Z,30.6294
2019-04-01T11:34:14.343Z,30.7805
2019-04-01T11:35:17.359Z,30.7546
2019-04-01T11:36:20.253Z,30.4891
2019-04-01T11:37:23.246Z,30.4707
2019-04-01T11:38:26.218Z,30.6065
2019-04-01T11:39:29.230Z,30.5211
2019-04-01T11:40:32.227Z,30.3136
2019-04-01T11:41:35.287Z,30.2052
2019-04-01T11:42:40.354Z,30.2541
2019-04-01T11:43:44.249Z,30.3746
2019-04-01T11:44:47.218Z,30.4799
2019-04-01T11:45:50.213Z,30.5989
2019-04-01T11:46:53.520Z,30.4646
2019-04-01T11:47:56.246Z,30.4524
2019-04-01T11:48:59.249Z,30.5882
2019-04-01T11:50:02.248Z,30.5608
2019-04-01T11:51:05.301Z,30.3059
2019-04-01T11:52:08.894Z,30.2693
2019-04-01T11:53:12.234Z,30.3151
2019-04-01T11:54:15.200Z,30.0999
2019-04-01T11:55:18.198Z,30.2083
2019-04-01T11:56:21.210Z,30.2235
2019-04-01T11:57:24.252Z,30.1991
2019-04-01T11:58:27.192Z,30.2907
2019-04-01T11:59:30.198Z,30.4509
2019-04-01T12:00:33.222Z,30.3563
2019-04-01T12:01:36.883Z,30.5928
2019-04-01T12:02:40.209Z,30.4067
2019-04-01T12:03:43.221Z,30.4967
2019-04-01T12:04:46.210Z,30.6706
2019-04-01T12:05:49.215Z,30.7958
2019-04-01T12:06:52.221Z,30.6401
2019-04-01T12:07:55.212Z,30.7958
2019-04-01T12:08:59.021Z,30.9041
2019-04-01T12:10:02.213Z,30.8080
2019-04-01T12:11:05.191Z,30.6676
2019-04-01T12:12:22.420Z,31.0521
2019-04-01T12:13:17.194Z,30.5058
2019-04-01T12:14:20.194Z,30.1122
2019-04-01T12:15:23.206Z,29.7704
2019-04-01T12:16:26.195Z,29.5216
2019-04-01T12:17:29.216Z,29.4438
2019-04-01T12:18:32.214Z,29.4301
2019-04-01T12:19:35.206Z,29.3614
2019-04-01T12:20:38.311Z,29.5323
2019-04-01T12:21:41.557Z,29.3675
2019-04-01T12:22:45.988Z,29.5033
2019-04-01T12:23:49.209Z,29.5949
2019-04-01T12:24:52.192Z,29.4224
2019-04-01T12:25:55.199Z,29.4499
2019-04-01T12:26:58.213Z,29.1798
2019-04-01T12:28:01.209Z,29.1371
2019-04-01T12:29:04.217Z,29.1691
2019-04-01T12:30:07.201Z,29.3080
2019-04-01T12:31:12.746Z,29.3263
2019-04-01T12:32:16.217Z,29.4270
2019-04-01T12:33:19.206Z,29.5949
2019-04-01T12:34:22.183Z,29.7139
2019-04-01T12:35:25.187Z,29.6910
2019-04-01T12:36:28.221Z,29.7414
2019-04-01T12:37:31.223Z,29.6696
2019-04-01T12:38:34.203Z,29.6147
2019-04-01T12:39:37.198Z,29.7414
2019-04-01T12:40:40.212Z,29.7230
2019-04-01T12:41:43.196Z,29.8009
2019-04-01T12:42:46.648Z,29.8116